Time;durP1;ratioP1;P1;durP2;ratioP2;P2;SDS_P1;SDS_P2;PMS_P1;PMS_P2;Temp;Humidity;BMP_temperature;BMP_pressure;BME280_temperature;BME280_humidity;BME280_pressure;Samples;Min_cycle;Max_cycle;Signal;HPM_P1;HPM_P2
2023/10/07 00:00:47;;;;;;;;;;;15.60;99.90;;;;;;5032859;28;20222;-86
2023/10/07 00:03:07;;;;;;;;;;;15.50;99.90;;;;;;5024530;28;19925;-88
2023/10/07 00:05:35;;;;;;;;;;;15.50;99.90;;;;;;5028291;28;20423;-88
2023/10/07 00:08:03;;;;;;;;;;;15.50;99.90;;;;;;5028381;28;20464;-88
2023/10/07 00:10:29;;;;;;;;;;;15.60;99.90;;;;;;5030734;28;19934;-89
2023/10/07 00:12:57;;;;;;;;;;;15.60;99.90;;;;;;5035075;28;20435;-89
2023/10/07 00:15:28;;;;;;;;;;;15.70;99.90;;;;;;5032704;28;20727;-88
2023/10/07 00:18:00;;;;;;;;;;;15.70;99.90;;;;;;5029935;28;19973;-88
2023/10/07 00:20:27;;;;;;;;;;;15.70;99.90;;;;;;5023626;28;19933;-88
2023/10/07 00:22:57;;;;;;;;;;;15.70;99.90;;;;;;5027765;28;20259;-87
2023/10/07 00:25:22;;;;;;;;;;;15.70;99.90;;;;;;5026879;28;19979;-88
2023/10/07 00:27:48;;;;;;;;;;;15.80;99.90;;;;;;5027452;28;19933;-88
2023/10/07 00:30:21;;;;;;;;;;;15.90;99.90;;;;;;5026317;28;19936;-89
2023/10/07 00:32:50;;;;;;;;;;;15.90;99.90;;;;;;5016584;28;19926;-90
2023/10/07 00:35:20;;;;;;;;;;;15.90;99.90;;;;;;5028513;28;19930;-90
2023/10/07 00:37:45;;;;;;;;;;;15.90;99.90;;;;;;5024662;28;19925;-91
2023/10/07 00:40:14;;;;;;;;;;;16.00;99.90;;;;;;5028065;28;19925;-89
2023/10/07 00:42:44;;;;;;;;;;;16.00;99.90;;;;;;5020253;28;20571;-89
2023/10/07 00:45:16;;;;;;;;;;;16.00;99.90;;;;;;5023932;28;19932;-90
2023/10/07 00:47:49;;;;;;;;;;;16.00;99.90;;;;;;5030403;28;19925;-87
2023/10/07 00:50:22;;;;;;;;;;;16.10;99.90;;;;;;5023432;28;19929;-89
2023/10/07 00:52:56;;;;;;;;;;;16.00;99.90;;;;;;5027665;28;21090;-87
2023/10/07 00:55:36;;;;;;;;;;;16.10;99.90;;;;;;5035974;28;19926;-89
2023/10/07 00:58:20;;;;;;;;;;;16.10;99.90;;;;;;5024622;28;19925;-91
2023/10/07 01:00:49;;;;;;;;;;;16.10;99.90;;;;;;5029316;28;20047;-87
2023/10/07 01:03:30;;;;;;;;;;;16.10;99.90;;;;;;5021987;28;19930;-88
2023/10/07 01:08:34;;;;;;;;;;;16.10;99.90;;;;;;5026152;28;19974;-89
2023/10/07 01:13:49;;;;;;;;;;;16.10;99.90;;;;;;5032374;28;19956;-89
2023/10/07 01:16:25;;;;;;;;;;;16.10;99.90;;;;;;5025915;28;19925;-88
2023/10/07 01:18:51;;;;;;;;;;;16.10;99.90;;;;;;5027358;28;19925;-91
2023/10/07 01:21:20;;;;;;;;;;;16.10;99.90;;;;;;5017020;28;20032;-90
2023/10/07 01:23:46;;;;;;;;;;;16.10;99.90;;;;;;5026878;28;19925;-94
2023/10/07 01:26:15;;;;;;;;;;;16.10;99.90;;;;;;5028086;28;19948;-89
2023/10/07 01:28:41;;;;;;;;;;;16.10;99.90;;;;;;5027570;28;20490;-90
2023/10/07 01:31:18;;;;;;;;;;;16.10;99.90;;;;;;5028702;28;19925;-89
2023/10/07 01:33:47;;;;;;;;;;;16.10;99.90;;;;;;5032304;28;19949;-90
2023/10/07 01:38:48;;;;;;;;;;;16.10;99.90;;;;;;5027303;28;19997;-89
2023/10/07 01:41:18;;;;;;;;;;;16.10;99.90;;;;;;5025215;28;19935;-90
2023/10/07 01:43:59;;;;;;;;;;;16.10;99.90;;;;;;5031754;28;20301;-91
2023/10/07 01:46:28;;;;;;;;;;;16.10;99.90;;;;;;5028683;28;19941;-94
2023/10/07 01:48:58;;;;;;;;;;;16.00;99.90;;;;;;5033240;28;19926;-88
2023/10/07 01:51:27;;;;;;;;;;;16.00;99.90;;;;;;5028806;28;19925;-89
2023/10/07 01:53:56;;;;;;;;;;;16.10;99.90;;;;;;5022194;28;19964;-90
2023/10/07 01:56:23;;;;;;;;;;;16.10;99.90;;;;;;5035236;28;19932;-89
2023/10/07 01:58:50;;;;;;;;;;;16.10;99.90;;;;;;5025656;28;19933;-89
2023/10/07 02:01:17;;;;;;;;;;;16.10;99.90;;;;;;5046987;28;19925;-91
2023/10/07 02:03:46;;;;;;;;;;;16.20;99.90;;;;;;5030442;28;19926;-91
2023/10/07 02:06:11;;;;;;;;;;;16.20;99.90;;;;;;5028229;28;20388;-89
2023/10/07 02:08:37;;;;;;;;;;;16.20;99.90;;;;;;5022207;28;20446;-88
2023/10/07 02:11:05;;;;;;;;;;;16.20;99.90;;;;;;5023924;28;19988;-89
2023/10/07 02:13:31;;;;;;;;;;;16.20;99.90;;;;;;5025543;28;19937;-90
2023/10/07 02:15:57;;;;;;;;;;;16.20;99.90;;;;;;5025302;28;19925;-89
2023/10/07 02:18:22;;;;;;;;;;;16.30;99.90;;;;;;5028777;28;19925;-89
2023/10/07 02:21:22;;;;;;;;;;;16.30;99.90;;;;;;5021483;28;19940;-89
2023/10/07 02:23:40;;;;;;;;;;;16.30;99.90;;;;;;5020010;28;19973;-91
2023/10/07 02:26:07;;;;;;;;;;;16.30;99.90;;;;;;5029827;28;19936;-89
2023/10/07 02:28:35;;;;;;;;;;;16.30;99.90;;;;;;5024387;28;19929;-90
2023/10/07 02:31:07;;;;;;;;;;;16.30;99.90;;;;;;5027240;28;20322;-89
2023/10/07 02:33:41;;;;;;;;;;;16.40;99.90;;;;;;5025966;28;20008;-88
2023/10/07 02:36:10;;;;;;;;;;;16.40;99.90;;;;;;5027148;28;19925;-89
2023/10/07 02:38:36;;;;;;;;;;;16.40;99.90;;;;;;5024141;28;19945;-90
2023/10/07 02:41:07;;;;;;;;;;;16.40;99.90;;;;;;5026767;28;19931;-89
2023/10/07 02:43:34;;;;;;;;;;;16.40;99.90;;;;;;5023709;28;19925;-90
2023/10/07 02:46:08;;;;;;;;;;;16.40;99.90;;;;;;5026467;28;19932;-89
2023/10/07 02:48:38;;;;;;;;;;;16.40;99.90;;;;;;5030071;28;19976;-90
2023/10/07 02:51:09;;;;;;;;;;;16.40;99.90;;;;;;5022060;28;19925;-90
2023/10/07 02:53:35;;;;;;;;;;;16.40;99.90;;;;;;5025874;28;19932;-90
2023/10/07 02:56:05;;;;;;;;;;;16.40;99.90;;;;;;5026372;28;19953;-89
2023/10/07 02:58:36;;;;;;;;;;;16.40;99.90;;;;;;5031386;28;19929;-91
2023/10/07 03:01:13;;;;;;;;;;;16.50;99.90;;;;;;5024812;28;19936;-89
2023/10/07 03:03:40;;;;;;;;;;;16.50;99.90;;;;;;5028749;28;19932;-90
2023/10/07 03:06:07;;;;;;;;;;;16.50;99.90;;;;;;5012000;28;20319;-88
2023/10/07 03:11:11;;;;;;;;;;;16.60;99.90;;;;;;5022301;28;20020;-91
2023/10/07 03:13:45;;;;;;;;;;;16.60;99.90;;;;;;5024676;28;19925;-88
2023/10/07 03:21:55;;;;;;;;;;;16.60;99.90;;;;;;5026276;28;19932;-91
2023/10/07 03:24:41;;;;;;;;;;;16.70;99.90;;;;;;5023622;28;19948;-90
2023/10/07 03:27:10;;;;;;;;;;;16.70;99.90;;;;;;5029319;28;20767;-89
2023/10/07 03:29:37;;;;;;;;;;;16.70;99.90;;;;;;5023292;28;19927;-89
2023/10/07 03:32:12;;;;;;;;;;;16.70;99.90;;;;;;5026182;28;20622;-88
2023/10/07 03:34:45;;;;;;;;;;;16.70;99.90;;;;;;5032605;28;19929;-89
2023/10/07 03:39:55;;;;;;;;;;;16.70;99.90;;;;;;5046850;28;19937;-91
2023/10/07 03:42:21;;;;;;;;;;;16.70;99.90;;;;;;5013579;28;19925;-88
2023/10/07 03:44:46;;;;;;;;;;;16.70;99.90;;;;;;5054586;28;19964;-89
2023/10/07 03:47:15;;;;;;;;;;;16.70;99.90;;;;;;5045166;28;19925;-93
2023/10/07 03:49:40;;;;;;;;;;;16.70;99.90;;;;;;5046516;28;19925;-90
2023/10/07 03:52:07;;;;;;;;;;;16.80;99.90;;;;;;5021744;28;20323;-86
2023/10/07 03:54:40;;;;;;;;;;;16.80;99.90;;;;;;5020209;28;19932;-90
2023/10/07 03:57:07;;;;;;;;;;;16.70;99.90;;;;;;5021498;28;19972;-89
2023/10/07 03:59:37;;;;;;;;;;;16.80;99.90;;;;;;5023253;28;20442;-88
2023/10/07 04:02:12;;;;;;;;;;;16.80;99.90;;;;;;5030507;28;20014;-88
2023/10/07 04:04:41;;;;;;;;;;;16.80;99.90;;;;;;5020122;28;20502;-88
2023/10/07 04:07:07;;;;;;;;;;;16.80;99.90;;;;;;5022333;28;19932;-87
2023/10/07 04:09:33;;;;;;;;;;;16.80;99.90;;;;;;5025767;28;19929;-89
2023/10/07 04:11:59;;;;;;;;;;;16.80;99.90;;;;;;5022708;28;19979;-91
2023/10/07 04:14:28;;;;;;;;;;;16.80;99.90;;;;;;5020870;28;20360;-87
2023/10/07 04:16:58;;;;;;;;;;;16.80;99.90;;;;;;5027018;28;19933;-92
2023/10/07 04:21:54;;;;;;;;;;;16.70;99.90;;;;;;5020109;28;19965;-88
2023/10/07 04:24:20;;;;;;;;;;;16.80;99.90;;;;;;5019827;28;19925;-88
2023/10/07 04:27:01;;;;;;;;;;;16.70;99.90;;;;;;5022650;28;20004;-89
2023/10/07 04:29:27;;;;;;;;;;;16.80;99.90;;;;;;5017969;28;19934;-87
2023/10/07 04:31:53;;;;;;;;;;;16.80;99.90;;;;;;5029977;28;20666;-88
2023/10/07 04:34:20;;;;;;;;;;;16.70;99.90;;;;;;5023593;28;20384;-90
2023/10/07 04:37:38;;;;;;;;;;;16.70;99.90;;;;;;5026858;28;19933;-89
2023/10/07 04:39:38;;;;;;;;;;;16.80;99.90;;;;;;5026266;28;20415;-89
2023/10/07 04:42:05;;;;;;;;;;;16.80;99.90;;;;;;5022787;28;19925;-89
2023/10/07 04:50:07;;;;;;;;;;;16.80;99.90;;;;;;5025133;28;19933;-89
2023/10/07 04:52:39;;;;;;;;;;;16.80;99.90;;;;;;5025381;28;19944;-88
2023/10/07 04:55:11;;;;;;;;;;;16.70;99.90;;;;;;5020236;28;19951;-89
2023/10/07 05:02:57;;;;;;;;;;;16.70;99.90;;;;;;5027729;28;19936;-89
2023/10/07 05:05:30;;;;;;;;;;;16.70;99.90;;;;;;5030290;28;19925;-88
2023/10/07 05:07:58;;;;;;;;;;;16.70;99.90;;;;;;5025454;28;19930;-89
2023/10/07 05:10:28;;;;;;;;;;;16.70;99.90;;;;;;5034322;28;19925;-90
2023/10/07 05:12:55;;;;;;;;;;;16.70;99.90;;;;;;5024195;28;19929;-89
2023/10/07 05:15:21;;;;;;;;;;;16.70;99.90;;;;;;5027343;28;19992;-88
2023/10/07 05:17:47;;;;;;;;;;;16.70;99.90;;;;;;5039111;28;19929;-88
2023/10/07 05:20:27;;;;;;;;;;;16.70;99.90;;;;;;5030034;28;19960;-87
2023/10/07 05:22:53;;;;;;;;;;;16.60;99.90;;;;;;5031291;28;19933;-90
2023/10/07 05:25:21;;;;;;;;;;;16.60;99.90;;;;;;5036083;28;19991;-88
2023/10/07 05:27:50;;;;;;;;;;;16.60;99.90;;;;;;5040851;28;19952;-89
2023/10/07 05:30:16;;;;;;;;;;;16.60;99.90;;;;;;5044504;28;19932;-89
2023/10/07 05:32:42;;;;;;;;;;;16.60;99.90;;;;;;5030728;28;19975;-89
2023/10/07 05:35:08;;;;;;;;;;;16.60;99.90;;;;;;5029893;28;20308;-88
2023/10/07 05:37:34;;;;;;;;;;;16.60;99.90;;;;;;5023955;28;20255;-89
2023/10/07 05:39:59;;;;;;;;;;;16.50;99.90;;;;;;5022279;28;19940;-88
2023/10/07 05:42:25;;;;;;;;;;;16.50;99.90;;;;;;5029858;28;19940;-88
2023/10/07 05:44:52;;;;;;;;;;;16.40;99.90;;;;;;5036669;28;19965;-88
2023/10/07 05:47:18;;;;;;;;;;;16.40;99.90;;;;;;5030953;28;19965;-91
2023/10/07 05:49:43;;;;;;;;;;;16.40;99.90;;;;;;5033921;28;19931;-88
2023/10/07 05:52:09;;;;;;;;;;;16.40;99.90;;;;;;5033778;28;19929;-92
2023/10/07 05:54:35;;;;;;;;;;;16.40;99.90;;;;;;5025675;28;19933;-90
2023/10/07 05:57:07;;;;;;;;;;;16.40;99.90;;;;;;5026050;28;19929;-90
2023/10/07 05:59:33;;;;;;;;;;;16.40;99.90;;;;;;5025670;28;20033;-88
2023/10/07 06:02:05;;;;;;;;;;;16.40;99.90;;;;;;5022509;28;19929;-88
2023/10/07 06:04:31;;;;;;;;;;;16.40;99.90;;;;;;5023627;28;19932;-86
2023/10/07 06:06:57;;;;;;;;;;;16.40;99.90;;;;;;5026125;28;19933;-88
2023/10/07 06:09:22;;;;;;;;;;;16.40;99.90;;;;;;5021298;28;19933;-88
2023/10/07 06:11:48;;;;;;;;;;;16.40;99.90;;;;;;5016373;28;19943;-88
2023/10/07 06:14:18;;;;;;;;;;;16.40;99.90;;;;;;5036084;28;19988;-90
2023/10/07 06:16:44;;;;;;;;;;;16.40;99.90;;;;;;5039044;28;19936;-89
2023/10/07 06:19:13;;;;;;;;;;;16.40;99.90;;;;;;5036354;28;19921;-89
2023/10/07 06:21:50;;;;;;;;;;;16.50;99.90;;;;;;5033876;28;19937;-90
2023/10/07 06:24:20;;;;;;;;;;;16.40;99.90;;;;;;5031111;28;19932;-90
2023/10/07 06:26:48;;;;;;;;;;;16.40;99.90;;;;;;5032453;28;19921;-88
2023/10/07 06:29:18;;;;;;;;;;;16.40;99.90;;;;;;5028532;28;19944;-89
2023/10/07 06:31:48;;;;;;;;;;;16.40;99.90;;;;;;5038001;28;20020;-90
2023/10/07 06:34:15;;;;;;;;;;;16.50;99.90;;;;;;5047750;28;19930;-88
2023/10/07 06:36:40;;;;;;;;;;;16.50;99.90;;;;;;5030478;28;19929;-87
2023/10/07 06:39:07;;;;;;;;;;;16.40;99.90;;;;;;5031300;28;19935;-89
2023/10/07 06:41:34;;;;;;;;;;;16.40;99.90;;;;;;5012014;28;19929;-90
2023/10/07 06:43:59;;;;;;;;;;;16.40;99.90;;;;;;5027180;28;19933;-89
2023/10/07 06:46:31;;;;;;;;;;;16.50;99.90;;;;;;5015445;28;19972;-91
2023/10/07 06:48:57;;;;;;;;;;;16.40;99.90;;;;;;5029311;28;20145;-89
2023/10/07 06:51:29;;;;;;;;;;;16.40;99.90;;;;;;5031707;28;19987;-89
2023/10/07 06:53:55;;;;;;;;;;;16.50;99.90;;;;;;5028381;28;19999;-90
2023/10/07 06:56:21;;;;;;;;;;;16.50;99.90;;;;;;5007885;28;19933;-88
2023/10/07 06:58:59;;;;;;;;;;;16.50;99.90;;;;;;5028058;28;19929;-89
2023/10/07 07:04:17;;;;;;;;;;;16.50;99.90;;;;;;5035473;28;20462;-89
2023/10/07 07:06:44;;;;;;;;;;;16.50;99.90;;;;;;5028247;28;20397;-89
2023/10/07 07:11:58;;;;;;;;;;;16.60;99.90;;;;;;5037820;28;19948;-90
2023/10/07 07:14:28;;;;;;;;;;;16.60;99.90;;;;;;5031657;28;20296;-89
2023/10/07 07:16:57;;;;;;;;;;;16.60;99.90;;;;;;5028727;28;20081;-86
2023/10/07 07:19:23;;;;;;;;;;;16.60;99.90;;;;;;5026935;28;19970;-90
2023/10/07 07:21:50;;;;;;;;;;;16.70;99.90;;;;;;5033116;28;19936;-87
2023/10/07 07:24:22;;;;;;;;;;;16.80;99.90;;;;;;5027879;28;20438;-88
2023/10/07 07:26:51;;;;;;;;;;;16.90;99.90;;;;;;5017758;28;20431;-87
2023/10/07 07:29:18;;;;;;;;;;;17.00;99.90;;;;;;5027257;28;19929;-88
2023/10/07 07:31:46;;;;;;;;;;;17.10;99.90;;;;;;5042307;28;19940;-86
2023/10/07 07:34:31;;;;;;;;;;;17.20;99.90;;;;;;5024701;28;19925;-86
2023/10/07 07:37:02;;;;;;;;;;;17.40;99.90;;;;;;5029656;28;19948;-86
2023/10/07 07:39:30;;;;;;;;;;;17.50;99.90;;;;;;5031222;28;19937;-86
2023/10/07 07:41:57;;;;;;;;;;;17.50;99.90;;;;;;5043558;28;19976;-89
2023/10/07 07:44:32;;;;;;;;;;;17.70;99.90;;;;;;5048401;28;19929;-87
2023/10/07 07:46:58;;;;;;;;;;;17.70;99.90;;;;;;5026749;28;19995;-87
2023/10/07 07:49:28;;;;;;;;;;;17.70;99.90;;;;;;5028452;28;20531;-87
2023/10/07 07:51:53;;;;;;;;;;;17.70;99.90;;;;;;5023796;28;19933;-87
2023/10/07 07:54:19;;;;;;;;;;;17.80;99.90;;;;;;5023916;28;19929;-87
2023/10/07 07:56:48;;;;;;;;;;;17.70;99.90;;;;;;5021804;28;19932;-89
2023/10/07 07:59:14;;;;;;;;;;;17.70;99.90;;;;;;5017537;28;19940;-88
2023/10/07 08:01:44;;;;;;;;;;;17.80;99.90;;;;;;5033266;28;19926;-87
2023/10/07 08:04:37;;;;;;;;;;;17.80;99.90;;;;;;5029168;28;20325;-88
2023/10/07 08:07:12;;;;;;;;;;;17.90;99.90;;;;;;5031554;28;20648;-88
2023/10/07 08:09:37;;;;;;;;;;;18.00;99.90;;;;;;5050883;28;19948;-88
2023/10/07 08:12:05;;;;;;;;;;;18.20;99.90;;;;;;5030854;28;19929;-87
2023/10/07 08:14:33;;;;;;;;;;;18.30;99.90;;;;;;5038708;28;20016;-91
2023/10/07 08:17:00;;;;;;;;;;;18.40;99.90;;;;;;5045178;28;19929;-88
2023/10/07 08:19:25;;;;;;;;;;;18.50;99.90;;;;;;5048078;28;20413;-87
2023/10/07 08:21:52;;;;;;;;;;;18.50;99.90;;;;;;5043177;28;19929;-87
2023/10/07 08:24:19;;;;;;;;;;;18.50;99.90;;;;;;5023578;28;19965;-87
2023/10/07 08:26:48;;;;;;;;;;;18.40;99.90;;;;;;5044565;28;19925;-89
2023/10/07 08:29:30;;;;;;;;;;;18.40;99.90;;;;;;5037014;28;19951;-90
2023/10/07 08:31:57;;;;;;;;;;;18.40;99.90;;;;;;5042576;28;19925;-90
2023/10/07 08:34:31;;;;;;;;;;;18.50;99.90;;;;;;5040858;28;19925;-90
2023/10/07 08:37:00;;;;;;;;;;;18.50;99.90;;;;;;5054278;28;20385;-87
2023/10/07 08:39:28;;;;;;;;;;;18.60;99.90;;;;;;5026386;28;19948;-87
2023/10/07 08:42:00;;;;;;;;;;;18.70;99.90;;;;;;5031023;28;19993;-91
2023/10/07 08:44:31;;;;;;;;;;;18.90;99.90;;;;;;5028152;28;20273;-89
2023/10/07 08:47:04;;;;;;;;;;;19.00;99.90;;;;;;5028337;28;19930;-92
2023/10/07 08:49:32;;;;;;;;;;;19.00;99.90;;;;;;5025358;28;19936;-91
2023/10/07 08:51:59;;;;;;;;;;;18.90;99.90;;;;;;5029028;28;19929;-87
2023/10/07 08:54:31;;;;;;;;;;;18.90;99.90;;;;;;5029208;28;20499;-91
2023/10/07 08:56:58;;;;;;;;;;;18.80;99.90;;;;;;5034322;28;19936;-88
2023/10/07 08:59:30;;;;;;;;;;;18.70;99.90;;;;;;5026484;28;19932;-88
2023/10/07 09:02:26;;;;;;;;;;;18.70;99.90;;;;;;5042526;28;19951;-89
2023/10/07 09:04:55;;;;;;;;;;;18.70;99.90;;;;;;5031926;28;20363;-87
2023/10/07 09:07:22;;;;;;;;;;;18.70;99.90;;;;;;5006319;28;19925;-88
2023/10/07 09:09:48;;;;;;;;;;;18.80;99.90;;;;;;5041750;28;19925;-89
2023/10/07 09:12:24;;;;;;;;;;;18.90;99.90;;;;;;5027118;28;19932;-85
2023/10/07 09:14:57;;;;;;;;;;;19.00;99.90;;;;;;5038246;28;19931;-89
2023/10/07 09:17:23;;;;;;;;;;;19.10;99.90;;;;;;5037991;28;20000;-86
2023/10/07 09:19:52;;;;;;;;;;;19.30;99.90;;;;;;5036348;28;20288;-88
2023/10/07 09:22:24;;;;;;;;;;;19.40;99.90;;;;;;5032146;28;19929;-87
2023/10/07 09:24:54;;;;;;;;;;;19.60;99.90;;;;;;5019650;28;19936;-88
2023/10/07 09:27:36;;;;;;;;;;;19.80;99.90;;;;;;5029890;28;19937;-87
2023/10/07 09:30:34;;;;;;;;;;;20.00;99.90;;;;;;5019657;28;19936;-87
2023/10/07 09:32:52;;;;;;;;;;;20.20;99.90;;;;;;5033549;28;19993;-90
2023/10/07 09:35:22;;;;;;;;;;;20.30;99.90;;;;;;5036961;28;19933;-88
2023/10/07 09:37:48;;;;;;;;;;;20.40;99.90;;;;;;5010195;28;20025;-87
2023/10/07 09:41:05;;;;;;;;;;;20.80;99.90;;;;;;5036490;28;19929;-88
2023/10/07 09:43:08;;;;;;;;;;;20.90;99.90;;;;;;5045054;28;20348;-87
2023/10/07 09:45:35;;;;;;;;;;;20.90;99.90;;;;;;5027186;28;20396;-86
2023/10/07 09:48:03;;;;;;;;;;;21.00;99.90;;;;;;5028818;28;19929;-86
2023/10/07 09:50:33;;;;;;;;;;;21.30;99.90;;;;;;5021531;28;19925;-86
2023/10/07 09:52:59;;;;;;;;;;;21.40;99.90;;;;;;5023800;28;19930;-88
2023/10/07 09:55:31;;;;;;;;;;;21.30;99.90;;;;;;5037258;28;20413;-87
2023/10/07 09:58:11;;;;;;;;;;;20.90;99.90;;;;;;5035133;28;20372;-85
2023/10/07 10:01:05;;;;;;;;;;;20.70;99.90;;;;;;5030308;28;19925;-87
2023/10/07 10:03:44;;;;;;;;;;;20.50;99.90;;;;;;5033026;28;19991;-86
2023/10/07 10:06:13;;;;;;;;;;;20.20;99.90;;;;;;5036657;28;20171;-87
2023/10/07 10:08:43;;;;;;;;;;;20.10;99.90;;;;;;5027007;28;20299;-85
2023/10/07 10:11:31;;;;;;;;;;;20.00;99.90;;;;;;5040380;28;19933;-85
2023/10/07 10:17:00;;;;;;;;;;;19.80;99.90;;;;;;5042578;28;19958;-88
2023/10/07 10:19:37;;;;;;;;;;;19.70;99.90;;;;;;5045710;28;19947;-88
2023/10/07 10:22:13;;;;;;;;;;;19.60;99.90;;;;;;5025743;28;19956;-92
2023/10/07 10:24:43;;;;;;;;;;;19.50;99.90;;;;;;5034806;28;20288;-85
2023/10/07 10:27:10;;;;;;;;;;;19.50;99.90;;;;;;5029987;28;20017;-87
2023/10/07 10:30:05;;;;;;;;;;;19.50;99.90;;;;;;5033824;28;19999;-87
2023/10/07 10:32:34;;;;;;;;;;;19.50;99.90;;;;;;5029672;28;19932;-85
2023/10/07 10:35:01;;;;;;;;;;;19.60;99.90;;;;;;5033226;28;19929;-86
2023/10/07 10:37:28;;;;;;;;;;;19.70;99.90;;;;;;5029032;28;19969;-89
2023/10/07 10:39:54;;;;;;;;;;;19.80;99.90;;;;;;5031247;28;19933;-88
2023/10/07 10:42:24;;;;;;;;;;;19.90;99.90;;;;;;5049661;28;19929;-86
2023/10/07 10:44:52;;;;;;;;;;;20.00;99.90;;;;;;5024723;28;20043;-85
2023/10/07 10:47:18;;;;;;;;;;;20.00;99.90;;;;;;5023414;28;20159;-86
2023/10/07 10:49:44;;;;;;;;;;;20.00;99.90;;;;;;5029089;28;19933;-91
2023/10/07 10:52:12;;;;;;;;;;;19.90;99.90;;;;;;5036477;28;19928;-88
2023/10/07 10:54:39;;;;;;;;;;;19.80;99.90;;;;;;5040737;28;19981;-87
2023/10/07 10:57:07;;;;;;;;;;;19.80;99.90;;;;;;5036804;28;20019;-88
2023/10/07 10:59:37;;;;;;;;;;;19.80;99.90;;;;;;5022329;28;19934;-86
2023/10/07 11:02:05;;;;;;;;;;;19.80;99.90;;;;;;5026727;28;19935;-90
2023/10/07 11:04:31;;;;;;;;;;;19.80;99.90;;;;;;5022307;28;19925;-91
2023/10/07 11:06:58;;;;;;;;;;;19.80;99.90;;;;;;5027593;28;19925;-91
2023/10/07 11:09:33;;;;;;;;;;;19.80;99.90;;;;;;5022060;28;19949;-88
2023/10/07 11:12:00;;;;;;;;;;;19.80;99.90;;;;;;5024625;28;19960;-89
2023/10/07 11:14:26;;;;;;;;;;;19.80;99.90;;;;;;5032321;28;19925;-88
2023/10/07 11:16:57;;;;;;;;;;;19.80;99.90;;;;;;5025542;28;19936;-90
2023/10/07 11:19:25;;;;;;;;;;;19.80;99.90;;;;;;5029970;28;19956;-91
2023/10/07 11:21:51;;;;;;;;;;;19.90;99.90;;;;;;5024355;28;19996;-89
2023/10/07 11:24:24;;;;;;;;;;;19.90;99.90;;;;;;5034289;28;20403;-89
2023/10/07 11:26:56;;;;;;;;;;;19.90;99.90;;;;;;5018219;28;19930;-88
2023/10/07 11:29:22;;;;;;;;;;;19.90;99.90;;;;;;5025408;28;19925;-89
2023/10/07 11:31:57;;;;;;;;;;;20.00;99.90;;;;;;5029004;28;19925;-89
2023/10/07 11:34:29;;;;;;;;;;;19.90;99.90;;;;;;5026097;28;19925;-87
2023/10/07 11:37:04;;;;;;;;;;;20.20;99.90;;;;;;5026675;28;19960;-91
2023/10/07 11:39:30;;;;;;;;;;;20.20;99.90;;;;;;5026008;28;19929;-91
2023/10/07 11:41:55;;;;;;;;;;;20.20;99.90;;;;;;5029145;28;20028;-91
2023/10/07 11:44:21;;;;;;;;;;;20.10;99.90;;;;;;5021079;28;19949;-91
2023/10/07 11:46:47;;;;;;;;;;;20.10;99.90;;;;;;5019615;28;19935;-87
2023/10/07 11:49:15;;;;;;;;;;;20.00;99.90;;;;;;5026587;28;19992;-89
2023/10/07 11:51:40;;;;;;;;;;;19.90;99.90;;;;;;5020960;28;19929;-87
2023/10/07 11:54:06;;;;;;;;;;;19.90;99.90;;;;;;5021536;28;19925;-89
2023/10/07 11:56:32;;;;;;;;;;;20.00;99.90;;;;;;5020021;28;19929;-89
2023/10/07 11:58:58;;;;;;;;;;;20.10;99.90;;;;;;5026964;28;19936;-90
2023/10/07 12:01:23;;;;;;;;;;;20.30;99.90;;;;;;5027580;28;19972;-87
2023/10/07 12:03:49;;;;;;;;;;;20.50;99.90;;;;;;5027610;28;19929;-89
2023/10/07 12:06:15;;;;;;;;;;;20.50;99.90;;;;;;5027276;28;19932;-87
2023/10/07 12:08:41;;;;;;;;;;;20.50;99.90;;;;;;5027844;28;19925;-92
2023/10/07 12:11:08;;;;;;;;;;;20.50;99.90;;;;;;5039856;28;19933;-90
2023/10/07 12:13:34;;;;;;;;;;;20.40;99.90;;;;;;5021905;28;20449;-88
2023/10/07 12:16:00;;;;;;;;;;;20.40;99.90;;;;;;5022118;28;19929;-89
2023/10/07 12:18:25;;;;;;;;;;;20.50;99.90;;;;;;5022938;28;19976;-88
2023/10/07 12:20:53;;;;;;;;;;;20.50;99.90;;;;;;5024392;28;20419;-90
2023/10/07 12:23:18;;;;;;;;;;;20.40;99.90;;;;;;5036612;28;19925;-91
2023/10/07 12:25:44;;;;;;;;;;;20.30;99.90;;;;;;5024503;28;19939;-91
2023/10/07 12:28:10;;;;;;;;;;;20.20;99.90;;;;;;5020487;28;19930;-92
2023/10/07 12:30:37;;;;;;;;;;;20.20;99.90;;;;;;5009805;28;19926;-91
2023/10/07 12:33:03;;;;;;;;;;;20.30;99.90;;;;;;5028424;28;19929;-87
2023/10/07 12:35:30;;;;;;;;;;;20.30;99.90;;;;;;5027369;28;20333;-87
2023/10/07 12:37:56;;;;;;;;;;;20.30;99.90;;;;;;5030128;28;20358;-84
2023/10/07 12:40:21;;;;;;;;;;;20.40;99.90;;;;;;5024550;28;19929;-86
2023/10/07 12:42:50;;;;;;;;;;;20.50;99.90;;;;;;5023934;28;19926;-87
2023/10/07 12:45:16;;;;;;;;;;;20.50;99.90;;;;;;5019774;28;19945;-87
2023/10/07 12:47:42;;;;;;;;;;;20.60;99.90;;;;;;5030619;28;19929;-87
2023/10/07 12:52:52;;;;;;;;;;;20.80;99.90;;;;;;5021379;28;20388;-85
2023/10/07 12:55:18;;;;;;;;;;;20.90;99.90;;;;;;4990568;28;20015;-85
2023/10/07 12:57:44;;;;;;;;;;;20.90;99.90;;;;;;5005490;28;19957;-86
2023/10/07 13:00:23;;;;;;;;;;;20.90;99.90;;;;;;5001474;28;19937;-87
2023/10/07 13:02:55;;;;;;;;;;;20.80;99.90;;;;;;4984266;28;20415;-87
2023/10/07 13:05:22;;;;;;;;;;;20.70;99.90;;;;;;5002357;28;19940;-88
2023/10/07 13:07:51;;;;;;;;;;;20.40;99.90;;;;;;5005983;28;19934;-86
2023/10/07 13:10:17;;;;;;;;;;;20.30;99.90;;;;;;4993208;28;20270;-85
2023/10/07 13:12:43;;;;;;;;;;;20.20;99.90;;;;;;5002740;28;20296;-88
2023/10/07 13:15:15;;;;;;;;;;;20.20;99.90;;;;;;5007770;28;19936;-89
2023/10/07 13:17:45;;;;;;;;;;;20.30;99.90;;;;;;5002469;28;20404;-87
2023/10/07 13:20:17;;;;;;;;;;;20.40;99.90;;;;;;5011825;28;19929;-86
2023/10/07 13:22:43;;;;;;;;;;;20.30;99.90;;;;;;5002343;28;20404;-86
2023/10/07 13:25:09;;;;;;;;;;;20.30;99.90;;;;;;5005414;28;19925;-87
2023/10/07 13:27:39;;;;;;;;;;;20.30;99.90;;;;;;4990464;28;19933;-92
2023/10/07 13:30:12;;;;;;;;;;;20.20;99.90;;;;;;4996197;28;20580;-87
2023/10/07 13:32:41;;;;;;;;;;;20.10;99.90;;;;;;4998329;28;19929;-83
2023/10/07 13:35:09;;;;;;;;;;;20.10;99.90;;;;;;4999103;28;20860;-90
2023/10/07 13:37:37;;;;;;;;;;;20.10;99.90;;;;;;5008345;28;20016;-91
2023/10/07 13:40:07;;;;;;;;;;;20.00;99.90;;;;;;5003545;28;19926;-86
2023/10/07 13:42:34;;;;;;;;;;;19.90;99.90;;;;;;4999322;28;19932;-87
2023/10/07 13:45:08;;;;;;;;;;;19.90;99.90;;;;;;5001284;28;19930;-87
2023/10/07 13:47:35;;;;;;;;;;;19.80;99.90;;;;;;4999664;28;19931;-87
2023/10/07 13:50:04;;;;;;;;;;;19.80;99.90;;;;;;5005905;28;20400;-85
2023/10/07 13:52:40;;;;;;;;;;;19.70;99.90;;;;;;5000171;28;19946;-87
2023/10/07 13:55:21;;;;;;;;;;;19.70;99.90;;;;;;5018563;28;20430;-89
2023/10/07 13:57:52;;;;;;;;;;;19.70;99.90;;;;;;5020541;28;19933;-90
2023/10/07 14:03:05;;;;;;;;;;;19.60;99.90;;;;;;5018542;28;19991;-89
2023/10/07 14:05:36;;;;;;;;;;;19.60;99.90;;;;;;5024479;28;19925;-87
2023/10/07 14:08:10;;;;;;;;;;;19.60;99.90;;;;;;5025087;28;19933;-89
2023/10/07 14:10:37;;;;;;;;;;;19.50;99.90;;;;;;5023981;28;19925;-91
2023/10/07 14:13:03;;;;;;;;;;;19.50;99.90;;;;;;5035279;28;19925;-90
2023/10/07 14:15:31;;;;;;;;;;;19.30;99.90;;;;;;5028537;28;19929;-88
2023/10/07 14:17:57;;;;;;;;;;;19.30;99.90;;;;;;5038224;28;20016;-90
2023/10/07 14:20:23;;;;;;;;;;;19.30;99.90;;;;;;5039883;28;19929;-88
2023/10/07 14:22:49;;;;;;;;;;;19.20;99.90;;;;;;5036504;28;19940;-88
2023/10/07 14:25:14;;;;;;;;;;;19.20;99.90;;;;;;5021981;28;19925;-91
2023/10/07 14:27:40;;;;;;;;;;;19.10;99.90;;;;;;5026368;28;19929;-91
2023/10/07 14:30:06;;;;;;;;;;;19.10;99.90;;;;;;5033751;28;19929;-91
2023/10/07 14:32:32;;;;;;;;;;;19.10;99.90;;;;;;5028594;28;19933;-89
2023/10/07 14:34:57;;;;;;;;;;;19.00;99.90;;;;;;5025096;28;19952;-88
2023/10/07 14:37:23;;;;;;;;;;;19.00;99.90;;;;;;5027906;28;20020;-89
2023/10/07 14:39:51;;;;;;;;;;;18.90;99.90;;;;;;5035806;28;20004;-88
2023/10/07 14:42:19;;;;;;;;;;;18.90;99.90;;;;;;5019549;28;19925;-88
2023/10/07 14:44:45;;;;;;;;;;;18.90;99.90;;;;;;5029724;28;19957;-93
2023/10/07 14:47:13;;;;;;;;;;;18.90;99.90;;;;;;5037887;28;20124;-94
2023/10/07 14:49:39;;;;;;;;;;;18.80;99.90;;;;;;5024287;28;20483;-92
2023/10/07 14:52:07;;;;;;;;;;;18.80;99.90;;;;;;5039801;28;19925;-93
2023/10/07 14:54:34;;;;;;;;;;;18.80;99.90;;;;;;5022846;28;19957;-91
2023/10/07 14:57:03;;;;;;;;;;;18.80;99.90;;;;;;5036937;28;20286;-88
2023/10/07 14:59:29;;;;;;;;;;;18.80;99.90;;;;;;5037523;28;20343;-89
2023/10/07 15:01:56;;;;;;;;;;;18.70;99.90;;;;;;5042725;28;19925;-88
2023/10/07 15:04:22;;;;;;;;;;;18.70;99.90;;;;;;5030774;28;19925;-91
2023/10/07 15:06:48;;;;;;;;;;;18.70;99.90;;;;;;5026416;28;19944;-89
2023/10/07 15:09:21;;;;;;;;;;;18.60;99.90;;;;;;5032020;28;19929;-87
2023/10/07 15:11:47;;;;;;;;;;;18.60;99.90;;;;;;5034513;28;19929;-90
2023/10/07 15:14:13;;;;;;;;;;;18.60;99.90;;;;;;5017796;28;19940;-87